createdAt,value
2023-06-27T00:01:31.252Z,52.96
2023-06-27T00:04:01.627Z,52.93
2023-06-27T00:06:28.520Z,53.25
2023-06-27T00:08:55.120Z,52.89
2023-06-27T00:11:21.621Z,52.69
2023-06-27T00:13:49.523Z,52.08
2023-06-27T00:16:18.668Z,51.94
2023-06-27T00:18:51.265Z,51.65
2023-06-27T00:21:18.316Z,51.44
2023-06-27T00:23:44.954Z,51.18
2023-06-27T00:26:13.199Z,51.89
2023-06-27T00:28:39.818Z,51.51
2023-06-27T00:31:06.417Z,51.53
2023-06-27T00:36:22.476Z,51.78
2023-06-27T00:38:49.211Z,51.32
2023-06-27T00:41:16.088Z,51.17
2023-06-27T00:43:42.815Z,51.04
2023-06-27T00:46:09.880Z,50.59
2023-06-27T00:48:40.297Z,50.44
2023-06-27T00:51:09.071Z,50.20
2023-06-27T00:53:35.735Z,50.02
2023-06-27T00:56:02.958Z,50.17
2023-06-27T00:58:31.036Z,50.14
2023-06-27T01:01:01.921Z,49.72
2023-06-27T01:03:33.860Z,49.74
2023-06-27T01:06:07.837Z,49.37
2023-06-27T01:08:37.920Z,49.44
2023-06-27T01:11:09.141Z,49.17
2023-06-27T01:13:38.640Z,48.44
2023-06-27T01:16:06.447Z,48.04
2023-06-27T01:18:33.839Z,48.14
2023-06-27T01:21:02.025Z,48.48
2023-06-27T01:23:32.552Z,48.32
2023-06-27T01:26:04.804Z,48.08
2023-06-27T01:28:34.404Z,47.66
2023-06-27T01:31:02.498Z,48.00
2023-06-27T01:33:31.667Z,47.98
2023-06-27T01:36:01.450Z,47.55
2023-06-27T01:38:36.745Z,47.63
2023-06-27T01:41:09.684Z,47.73
2023-06-27T01:43:37.528Z,47.17
2023-06-27T01:46:04.664Z,47.63
2023-06-27T01:48:31.700Z,47.31
2023-06-27T01:50:58.341Z,46.93
2023-06-27T01:53:25.158Z,46.61
2023-06-27T01:55:51.789Z,47.08
2023-06-27T01:58:19.973Z,46.56
2023-06-27T02:00:46.651Z,47.01
2023-06-27T02:03:13.559Z,47.14
2023-06-27T02:05:40.429Z,46.80
2023-06-27T02:08:07.267Z,46.27
2023-06-27T02:10:33.782Z,45.66
2023-06-27T02:13:02.162Z,45.40
2023-06-27T02:15:30.053Z,46.50
2023-06-27T02:18:05.559Z,46.52
2023-06-27T02:20:32.198Z,46.05
2023-06-27T02:23:00.342Z,46.67
2023-06-27T02:25:27.727Z,47.00
2023-06-27T02:27:54.233Z,46.90
2023-06-27T02:30:20.827Z,46.58
2023-06-27T02:32:48.989Z,46.64
2023-06-27T02:35:17.310Z,46.49
2023-06-27T02:37:44.215Z,47.08
2023-06-27T02:40:11.161Z,46.59
2023-06-27T02:42:37.703Z,46.63
2023-06-27T02:45:04.605Z,46.64
2023-06-27T02:47:31.254Z,46.13
2023-06-27T02:49:59.153Z,45.84
2023-06-27T02:52:25.883Z,45.44
2023-06-27T02:54:53.481Z,46.08
2023-06-27T02:57:21.254Z,45.89
2023-06-27T02:59:48.702Z,45.73
2023-06-27T03:02:17.357Z,46.20
2023-06-27T03:04:43.968Z,46.12
2023-06-27T03:07:11.898Z,46.51
2023-06-27T03:09:38.462Z,47.06
2023-06-27T03:12:05.519Z,47.12
2023-06-27T03:14:33.212Z,46.95
2023-06-27T03:17:00.077Z,46.37
2023-06-27T03:19:38.878Z,46.60
2023-06-27T03:22:13.999Z,46.96
2023-06-27T03:24:40.634Z,47.63
2023-06-27T03:27:07.253Z,48.30
2023-06-27T03:29:37.755Z,48.73
2023-06-27T03:32:05.195Z,49.47
2023-06-27T03:34:32.878Z,49.76
2023-06-27T03:36:59.694Z,49.95
2023-06-27T03:39:27.644Z,50.40
2023-06-27T03:41:54.194Z,50.75
2023-06-27T03:44:21.409Z,50.66
2023-06-27T03:46:48.499Z,50.71
2023-06-27T03:49:16.096Z,50.96
2023-06-27T03:51:42.865Z,50.82
2023-06-27T03:54:10.417Z,50.78
2023-06-27T03:56:38.384Z,50.75
2023-06-27T03:59:04.936Z,50.71
2023-06-27T04:01:31.547Z,50.78
2023-06-27T04:03:59.730Z,50.73
2023-06-27T04:06:26.854Z,51.03
2023-06-27T04:08:53.848Z,51.02
2023-06-27T04:11:20.490Z,50.85
2023-06-27T04:13:49.144Z,50.95
2023-06-27T04:16:15.826Z,51.14
2023-06-27T04:18:42.574Z,50.81
2023-06-27T04:21:09.323Z,50.69
2023-06-27T04:23:35.834Z,50.70
2023-06-27T04:26:06.080Z,50.71
2023-06-27T04:28:32.825Z,50.81
2023-06-27T04:31:01.685Z,50.62
2023-06-27T04:33:28.697Z,50.66
2023-06-27T04:35:55.671Z,50.58
2023-06-27T04:38:22.226Z,50.69
2023-06-27T04:40:48.798Z,50.45
2023-06-27T04:43:15.587Z,50.69
2023-06-27T04:45:42.468Z,50.99
2023-06-27T04:48:10.594Z,51.14
2023-06-27T04:50:37.252Z,51.12
2023-06-27T04:53:05.196Z,50.95
2023-06-27T04:55:32.546Z,51.02
2023-06-27T04:57:59.209Z,50.94
2023-06-27T05:00:25.748Z,50.69
2023-06-27T05:02:52.358Z,50.91
2023-06-27T05:05:20.288Z,50.66
2023-06-27T05:07:46.828Z,50.71
2023-06-27T05:10:13.329Z,50.39
2023-06-27T05:12:40.046Z,50.68
2023-06-27T05:15:07.176Z,50.56
2023-06-27T05:17:33.926Z,50.46
2023-06-27T05:20:00.608Z,50.55
2023-06-27T05:22:28.503Z,50.29
2023-06-27T05:24:55.026Z,50.47
2023-06-27T05:27:21.698Z,50.43
2023-06-27T05:29:48.364Z,50.49
2023-06-27T05:32:14.940Z,50.38
2023-06-27T05:34:41.473Z,50.45
2023-06-27T05:37:08.039Z,50.46
2023-06-27T05:39:35.912Z,50.29
2023-06-27T05:42:02.507Z,50.65
2023-06-27T05:44:29.056Z,50.42
2023-06-27T05:46:55.619Z,50.36
2023-06-27T05:49:22.117Z,50.17
2023-06-27T05:51:48.702Z,50.25
2023-06-27T05:54:15.229Z,49.91
2023-06-27T05:56:43.172Z,50.00
2023-06-27T05:59:09.772Z,50.17
2023-06-27T06:01:38.480Z,50.18
2023-06-27T06:04:05.778Z,50.26
2023-06-27T06:06:35.238Z,50.16
2023-06-27T06:09:01.888Z,50.08
2023-06-27T06:11:29.774Z,50.41
2023-06-27T06:13:57.921Z,50.30
2023-06-27T06:16:25.198Z,50.74
2023-06-27T06:18:52.036Z,51.11
2023-06-27T06:21:18.673Z,51.62
2023-06-27T06:23:47.564Z,52.10
2023-06-27T06:26:14.070Z,52.54
2023-06-27T06:28:40.848Z,52.94
2023-06-27T06:31:12.076Z,52.90
2023-06-27T06:33:38.712Z,53.29
2023-06-27T06:36:05.738Z,53.12
2023-06-27T06:38:32.281Z,53.07
2023-06-27T06:40:58.806Z,53.22
2023-06-27T06:43:26.558Z,52.90
2023-06-27T06:45:53.446Z,52.89
2023-06-27T06:48:21.626Z,52.61
2023-06-27T06:50:48.197Z,52.47
2023-06-27T06:53:14.722Z,52.27
2023-06-27T06:55:41.406Z,52.14
2023-06-27T06:58:08.862Z,52.41
2023-06-27T07:00:36.433Z,52.38
2023-06-27T07:03:04.633Z,52.20
2023-06-27T07:05:32.615Z,52.23
2023-06-27T07:07:59.122Z,52.26
2023-06-27T07:10:25.731Z,51.96
2023-06-27T07:12:52.220Z,51.66
2023-06-27T07:15:19.636Z,51.74
2023-06-27T07:17:46.221Z,51.80
2023-06-27T07:20:13.375Z,51.80
2023-06-27T07:22:41.501Z,51.47
2023-06-27T07:25:08.511Z,51.30
2023-06-27T07:27:35.010Z,51.13
2023-06-27T07:30:01.682Z,50.96
2023-06-27T07:32:28.693Z,50.72
2023-06-27T07:34:55.668Z,50.49
2023-06-27T07:37:22.283Z,50.03
2023-06-27T07:39:50.377Z,50.15
2023-06-27T07:42:18.598Z,49.72
2023-06-27T07:44:45.342Z,49.12
2023-06-27T07:47:11.947Z,49.00
2023-06-27T07:49:39.058Z,49.20
2023-06-27T07:52:06.935Z,49.15
2023-06-27T07:54:33.562Z,48.65
2023-06-27T07:57:01.451Z,48.49
2023-06-27T07:59:27.992Z,48.51
2023-06-27T08:01:55.500Z,48.35
2023-06-27T08:04:22.738Z,48.03
2023-06-27T08:06:49.659Z,47.98
2023-06-27T08:09:16.465Z,47.91
2023-06-27T08:11:43.239Z,47.65
2023-06-27T08:14:11.159Z,47.66
2023-06-27T08:16:37.678Z,47.57
2023-06-27T08:19:04.291Z,47.66
2023-06-27T08:21:30.919Z,47.65
2023-06-27T08:23:57.597Z,47.19
2023-06-27T08:26:24.189Z,47.35
2023-06-27T08:28:50.886Z,47.29
2023-06-27T08:31:18.969Z,46.46
2023-06-27T08:33:45.672Z,46.45
2023-06-27T08:36:12.511Z,46.16
2023-06-27T08:38:39.061Z,46.13
2023-06-27T08:41:05.745Z,46.00
2023-06-27T08:43:32.390Z,45.50
2023-06-27T08:45:58.998Z,45.62
2023-06-27T08:48:26.989Z,45.59
2023-06-27T08:50:54.320Z,44.68
2023-06-27T08:53:22.272Z,44.44
2023-06-27T08:55:53.987Z,43.82
2023-06-27T08:58:25.750Z,43.83
2023-06-27T09:00:53.854Z,43.92
2023-06-27T09:03:21.100Z,44.33
2023-06-27T09:05:49.469Z,43.73
2023-06-27T09:08:16.484Z,43.31
2023-06-27T09:10:45.675Z,43.10
2023-06-27T09:13:13.395Z,42.75
2023-06-27T09:15:40.413Z,42.48
2023-06-27T09:18:07.278Z,42.85
2023-06-27T09:20:34.520Z,43.29
2023-06-27T09:23:06.865Z,42.40
2023-06-27T09:25:33.589Z,42.71
2023-06-27T09:28:13.918Z,42.24
2023-06-27T09:30:40.610Z,42.65
2023-06-27T09:33:07.338Z,42.38
2023-06-27T09:35:59.427Z,42.36
2023-06-27T09:41:02.541Z,42.85
2023-06-27T09:43:31.244Z,43.15
2023-06-27T09:45:57.985Z,43.15
2023-06-27T09:48:25.072Z,43.09
2023-06-27T09:50:58.291Z,42.19
2023-06-27T09:53:26.313Z,42.73
2023-06-27T09:55:56.864Z,42.85
2023-06-27T09:58:26.826Z,42.57
2023-06-27T10:00:53.572Z,41.97
2023-06-27T10:03:21.707Z,41.89
2023-06-27T10:05:59.044Z,42.75
2023-06-27T10:08:36.532Z,43.30
2023-06-27T10:11:03.140Z,43.58
2023-06-27T10:13:29.705Z,43.57
2023-06-27T10:15:56.380Z,43.58
2023-06-27T10:18:23.383Z,43.53
2023-06-27T10:20:51.322Z,43.60
2023-06-27T10:23:18.236Z,43.25
2023-06-27T10:25:46.792Z,43.68
2023-06-27T10:28:14.814Z,42.90
2023-06-27T10:30:44.447Z,42.77
2023-06-27T10:33:19.553Z,42.45
2023-06-27T10:35:50.945Z,42.30
2023-06-27T10:38:19.097Z,42.21
2023-06-27T10:41:06.230Z,42.29
2023-06-27T10:43:37.985Z,42.00
2023-06-27T10:46:08.312Z,42.06
2023-06-27T10:48:35.715Z,41.52
2023-06-27T10:51:07.140Z,41.29
2023-06-27T10:53:34.339Z,41.24
2023-06-27T10:56:14.526Z,41.08
2023-06-27T10:58:45.837Z,40.90
2023-06-27T11:01:15.262Z,40.82
2023-06-27T11:03:43.723Z,41.04
2023-06-27T11:06:10.482Z,41.17
2023-06-27T11:08:38.879Z,41.20
2023-06-27T11:11:06.800Z,41.17
2023-06-27T11:13:37.437Z,41.02
2023-06-27T11:16:06.078Z,40.87
2023-06-27T11:18:34.200Z,40.68
2023-06-27T11:21:00.819Z,40.38
2023-06-27T11:23:27.456Z,40.72
2023-06-27T11:25:54.993Z,40.64
2023-06-27T11:28:22.511Z,40.45
2023-06-27T11:30:50.312Z,40.54
2023-06-27T11:33:19.002Z,40.54
2023-06-27T11:35:45.830Z,40.17
2023-06-27T11:38:12.773Z,40.41
2023-06-27T11:40:49.048Z,39.90
2023-06-27T12:00:27.590Z,38.95
2023-06-27T12:02:55.727Z,38.28
2023-06-27T12:08:06.289Z,37.81
2023-06-27T12:10:34.305Z,37.51
2023-06-27T12:13:04.745Z,37.38
2023-06-27T12:15:31.965Z,37.63
2023-06-27T12:17:59.516Z,37.65
2023-06-27T12:20:30.990Z,37.19
2023-06-27T12:22:59.558Z,37.35
2023-06-27T12:28:24.051Z,37.21
2023-06-27T12:30:53.057Z,36.91
2023-06-27T12:36:15.943Z,37.04
2023-06-27T12:39:09.113Z,36.59
2023-06-27T12:42:03.719Z,36.72
2023-06-27T12:48:21.002Z,37.51
2023-06-27T12:50:47.731Z,37.35
2023-06-27T12:53:23.791Z,37.11
2023-06-27T12:55:53.000Z,37.16
2023-06-27T12:58:19.697Z,37.06
2023-06-27T13:00:48.266Z,37.39
2023-06-27T13:03:18.938Z,36.88
2023-06-27T13:05:48.235Z,36.82
2023-06-27T13:08:19.206Z,36.83
2023-06-27T13:10:47.431Z,37.20
2023-06-27T13:13:14.305Z,37.12
2023-06-27T13:15:42.846Z,36.97
2023-06-27T13:18:10.025Z,37.00
2023-06-27T13:20:36.692Z,37.39
2023-06-27T13:23:06.379Z,36.96
2023-06-27T13:25:34.730Z,37.28
2023-06-27T13:28:01.297Z,37.39
2023-06-27T13:30:29.471Z,37.98
2023-06-27T13:32:56.250Z,37.94
2023-06-27T13:35:23.682Z,37.96
2023-06-27T13:38:00.877Z,38.61
2023-06-27T13:40:30.189Z,38.44
2023-06-27T13:42:57.785Z,38.06
2023-06-27T13:45:26.572Z,38.14
2023-06-27T13:47:53.153Z,37.88
2023-06-27T13:50:21.817Z,37.07
2023-06-27T13:52:48.583Z,37.56
2023-06-27T13:55:17.007Z,37.82
2023-06-27T13:57:45.352Z,37.82
2023-06-27T14:00:13.134Z,36.69
2023-06-27T14:02:40.294Z,36.11
2023-06-27T14:05:29.182Z,36.66
2023-06-27T14:07:56.097Z,37.45
2023-06-27T14:10:23.578Z,37.79
2023-06-27T14:12:52.557Z,37.31
2023-06-27T14:15:20.839Z,37.69
2023-06-27T14:17:49.465Z,37.35
2023-06-27T14:20:16.340Z,37.04
2023-06-27T14:22:43.868Z,37.67
2023-06-27T14:25:10.836Z,37.41
2023-06-27T14:27:37.593Z,37.68
2023-06-27T14:30:06.944Z,38.00
2023-06-27T14:32:39.410Z,37.57
2023-06-27T14:35:06.654Z,37.39
2023-06-27T14:37:33.566Z,37.53
2023-06-27T14:40:00.337Z,37.45
2023-06-27T14:42:30.198Z,37.50
2023-06-27T14:44:56.748Z,37.67
2023-06-27T14:47:25.492Z,37.61
2023-06-27T14:49:52.514Z,37.48
2023-06-27T14:52:19.600Z,38.30
2023-06-27T14:54:46.469Z,38.31
2023-06-27T14:57:15.404Z,38.37
2023-06-27T14:59:42.050Z,37.87
2023-06-27T15:02:10.460Z,38.11
2023-06-27T15:04:38.767Z,38.60
2023-06-27T15:07:07.277Z,38.37
2023-06-27T15:09:33.911Z,38.08
2023-06-27T15:12:02.272Z,38.14
2023-06-27T15:14:29.428Z,35.86
2023-06-27T15:16:56.387Z,37.49
2023-06-27T15:19:23.259Z,37.86
2023-06-27T15:21:57.171Z,37.77
2023-06-27T15:24:23.861Z,37.96
2023-06-27T15:26:50.570Z,38.34
2023-06-27T15:29:17.094Z,38.28
2023-06-27T15:31:46.237Z,38.71
2023-06-27T15:34:16.421Z,38.66
2023-06-27T15:36:43.210Z,38.16
2023-06-27T15:39:11.600Z,37.74
2023-06-27T15:41:38.239Z,38.13
2023-06-27T15:44:05.838Z,38.09
2023-06-27T15:46:32.527Z,37.92
2023-06-27T15:48:59.881Z,38.21
2023-06-27T15:51:26.620Z,37.61
2023-06-27T15:53:53.547Z,38.30
2023-06-27T15:56:22.146Z,36.99
2023-06-27T15:58:50.670Z,37.76
2023-06-27T16:01:18.508Z,38.45
2023-06-27T16:03:45.515Z,38.14
2023-06-27T16:06:15.437Z,37.40
2023-06-27T16:08:41.979Z,37.88
2023-06-27T16:11:16.930Z,38.45
2023-06-27T16:13:46.923Z,38.75
2023-06-27T16:16:13.461Z,37.97
2023-06-27T16:18:39.999Z,38.08
2023-06-27T16:21:07.257Z,37.25
2023-06-27T16:23:33.781Z,37.56
2023-06-27T16:26:01.123Z,37.54
2023-06-27T16:28:28.234Z,38.58
2023-06-27T16:30:56.462Z,38.11
2023-06-27T16:33:25.498Z,37.91
2023-06-27T16:35:52.222Z,37.45
2023-06-27T16:38:19.336Z,38.65
2023-06-27T16:40:46.127Z,38.28
2023-06-27T16:43:12.812Z,38.10
2023-06-27T16:45:40.031Z,38.46
2023-06-27T16:48:08.474Z,38.65
2023-06-27T16:50:36.425Z,39.01
2023-06-27T16:53:04.087Z,38.65
2023-06-27T16:55:34.151Z,38.96
2023-06-27T16:58:01.250Z,39.27
2023-06-27T17:00:28.714Z,38.74
2023-06-27T17:02:55.438Z,39.55
2023-06-27T17:05:24.988Z,38.59
2023-06-27T17:07:53.305Z,39.07
2023-06-27T17:10:20.174Z,39.26
2023-06-27T17:12:47.653Z,39.57
2023-06-27T17:15:14.521Z,39.75
2023-06-27T17:17:41.725Z,39.74
2023-06-27T17:20:13.851Z,39.88
2023-06-27T17:22:42.076Z,39.42
2023-06-27T17:25:09.164Z,39.69
2023-06-27T17:27:36.586Z,39.53
2023-06-27T17:30:05.297Z,40.02
2023-06-27T17:32:32.285Z,39.69
2023-06-27T17:34:58.925Z,39.70
2023-06-27T17:37:26.200Z,39.75
2023-06-27T17:39:54.185Z,38.84
2023-06-27T17:42:21.296Z,38.12
2023-06-27T17:44:49.426Z,37.60
2023-06-27T17:47:16.565Z,38.86
2023-06-27T17:49:43.201Z,38.76
2023-06-27T17:52:10.141Z,38.33
2023-06-27T17:54:37.516Z,37.68
2023-06-27T17:57:05.640Z,37.57
2023-06-27T17:59:32.231Z,37.90
2023-06-27T18:01:59.294Z,37.70
2023-06-27T18:04:27.402Z,37.74
2023-06-27T18:06:53.984Z,39.45
2023-06-27T18:09:20.525Z,41.28
2023-06-27T18:11:47.302Z,41.43
2023-06-27T18:14:15.250Z,41.76
2023-06-27T18:16:42.103Z,41.60
2023-06-27T18:19:09.019Z,40.47
2023-06-27T18:21:37.082Z,40.73
2023-06-27T18:24:04.840Z,40.46
2023-06-27T18:26:31.371Z,40.21
2023-06-27T18:28:59.272Z,40.81
2023-06-27T18:31:27.196Z,40.98
2023-06-27T18:33:56.995Z,40.25
2023-06-27T18:36:23.514Z,40.26
2023-06-27T18:38:51.111Z,39.60
2023-06-27T18:41:18.151Z,39.64
2023-06-27T18:43:47.139Z,40.37
2023-06-27T18:46:15.141Z,40.12
2023-06-27T18:48:43.117Z,40.17
2023-06-27T18:51:10.235Z,40.72
2023-06-27T18:53:37.338Z,40.36
2023-06-27T18:56:04.377Z,39.86
2023-06-27T18:58:31.354Z,40.08
2023-06-27T19:00:57.916Z,40.31
2023-06-27T19:03:25.966Z,40.97
2023-06-27T19:05:55.595Z,41.02
2023-06-27T19:08:22.221Z,40.82
2023-06-27T19:10:48.840Z,41.50
2023-06-27T19:13:16.405Z,41.70
2023-06-27T19:15:43.998Z,41.86
2023-06-27T19:18:10.664Z,42.01
2023-06-27T19:20:40.333Z,42.19
2023-06-27T19:23:12.747Z,42.19
2023-06-27T19:25:39.531Z,42.37
2023-06-27T19:28:06.302Z,42.29
2023-06-27T19:30:32.976Z,42.35
2023-06-27T19:33:00.384Z,42.42
2023-06-27T19:35:28.965Z,42.63
2023-06-27T19:37:55.489Z,42.55
2023-06-27T19:40:23.411Z,42.78
2023-06-27T19:42:50.288Z,42.77
2023-06-27T19:45:16.945Z,42.44
2023-06-27T19:47:44.470Z,42.80
2023-06-27T19:50:11.539Z,42.85
2023-06-27T19:52:38.124Z,42.81
2023-06-27T19:55:05.042Z,42.93
2023-06-27T19:57:33.665Z,43.01
2023-06-27T20:00:05.959Z,43.04
2023-06-27T20:02:38.930Z,43.14
2023-06-27T20:05:08.580Z,43.22
2023-06-27T20:07:36.366Z,43.19
2023-06-27T20:10:13.982Z,43.21
2023-06-27T20:12:43.203Z,43.31
2023-06-27T20:15:10.269Z,43.28
2023-06-27T20:17:37.790Z,43.28
2023-06-27T20:20:06.952Z,43.10
2023-06-27T20:22:33.776Z,43.31
2023-06-27T20:25:01.396Z,43.22
2023-06-27T20:27:28.996Z,43.36
2023-06-27T20:29:56.884Z,43.29
2023-06-27T20:32:23.482Z,43.21
2023-06-27T20:34:50.263Z,43.33
2023-06-27T20:37:16.979Z,43.35
2023-06-27T20:39:43.497Z,43.43
2023-06-27T20:42:11.037Z,43.50
2023-06-27T20:44:37.658Z,43.39
2023-06-27T20:47:06.053Z,43.43
2023-06-27T20:49:32.906Z,43.47
2023-06-27T20:52:00.115Z,43.58
2023-06-27T20:54:26.996Z,43.51
2023-06-27T20:56:53.946Z,43.65
2023-06-27T20:59:22.758Z,43.68
2023-06-27T21:01:49.460Z,43.60
2023-06-27T21:04:17.776Z,43.26
2023-06-27T21:06:44.524Z,43.02
2023-06-27T21:09:11.129Z,43.09
2023-06-27T21:11:37.635Z,43.04
2023-06-27T21:14:04.173Z,43.08
2023-06-27T21:16:31.102Z,43.10
2023-06-27T21:18:59.905Z,43.14
2023-06-27T21:21:28.043Z,43.36
2023-06-27T21:23:54.645Z,43.55
2023-06-27T21:26:21.228Z,43.71
2023-06-27T21:28:47.844Z,43.76
2023-06-27T21:31:14.380Z,43.99
2023-06-27T21:33:42.566Z,44.09
2023-06-27T21:36:09.116Z,44.05
2023-06-27T21:38:37.511Z,43.85
2023-06-27T21:41:04.061Z,44.26
2023-06-27T21:43:30.677Z,44.49
2023-06-27T21:45:57.222Z,44.43
2023-06-27T21:48:23.762Z,44.63
2023-06-27T21:50:50.282Z,44.77
2023-06-27T21:53:16.819Z,44.77
2023-06-27T21:55:44.780Z,44.83
2023-06-27T21:58:11.323Z,44.78
2023-06-27T22:00:38.243Z,44.77
2023-06-27T22:03:05.019Z,44.96
2023-06-27T22:05:31.735Z,44.92
2023-06-27T22:07:58.365Z,44.88
2023-06-27T22:10:25.547Z,44.89
2023-06-27T22:12:54.586Z,44.89
2023-06-27T22:15:21.308Z,44.92
2023-06-27T22:17:49.898Z,44.81
2023-06-27T22:20:16.736Z,44.68
2023-06-27T22:22:43.587Z,44.66
2023-06-27T22:25:10.137Z,44.56
2023-06-27T22:27:36.719Z,44.66
2023-06-27T22:30:06.028Z,44.95
2023-06-27T22:32:32.889Z,45.20
2023-06-27T22:34:59.430Z,45.23
2023-06-27T22:37:26.008Z,45.36
2023-06-27T22:39:52.762Z,45.39
2023-06-27T22:42:19.757Z,45.71
2023-06-27T22:44:46.340Z,45.28
2023-06-27T22:47:14.351Z,45.23
2023-06-27T22:49:41.000Z,45.72
2023-06-27T22:52:08.654Z,45.70
2023-06-27T22:54:35.211Z,46.06
2023-06-27T22:57:01.835Z,46.12
2023-06-27T22:59:28.812Z,46.77
2023-06-27T23:01:55.372Z,46.81
2023-06-27T23:04:23.367Z,46.85
2023-06-27T23:06:49.953Z,47.07
2023-06-27T23:09:16.683Z,46.97
2023-06-27T23:11:43.239Z,46.95
2023-06-27T23:14:09.889Z,47.62
2023-06-27T23:16:36.423Z,47.54
2023-06-27T23:19:03.679Z,47.50
2023-06-27T23:21:35.462Z,48.27
2023-06-27T23:24:02.218Z,48.48
2023-06-27T23:26:35.259Z,48.73
2023-06-27T23:29:04.846Z,48.43
2023-06-27T23:31:35.966Z,48.56
2023-06-27T23:34:03.472Z,48.94
2023-06-27T23:36:37.329Z,48.89
2023-06-27T23:39:04.030Z,48.92
2023-06-27T23:41:30.544Z,48.90
2023-06-27T23:43:57.063Z,48.84
2023-06-27T23:46:23.681Z,48.64
2023-06-27T23:48:50.327Z,48.55
2023-06-27T23:51:16.865Z,48.34
2023-06-27T23:53:45.672Z,48.46
2023-06-27T23:56:12.674Z,48.86
2023-06-27T23:58:39.328Z,49.52
